createdAt,value
2019-01-08T00:00:03.740Z,-3.00
2019-01-08T00:02:35.571Z,-2.80
2019-01-08T00:05:06.053Z,-2.90
2019-01-08T00:07:36.534Z,-2.90
2019-01-08T00:10:07.420Z,-2.90
2019-01-08T00:12:37.917Z,-2.90
2019-01-08T00:15:08.471Z,-3.00
2019-01-08T00:17:38.960Z,-3.00
2019-01-08T00:20:09.434Z,-3.00
2019-01-08T00:22:40.316Z,-3.00
2019-01-08T00:25:10.777Z,-3.00
2019-01-08T00:27:41.385Z,-2.90
2019-01-08T00:30:11.858Z,-2.90
2019-01-08T00:32:42.328Z,-2.90
2019-01-08T00:35:12.785Z,-3.00
2019-01-08T00:37:43.358Z,-3.10
2019-01-08T00:40:14.669Z,-3.00
2019-01-08T00:42:45.233Z,-3.10
2019-01-08T00:45:15.699Z,-3.10
2019-01-08T00:47:46.229Z,-3.10
2019-01-08T00:50:16.957Z,-3.20
2019-01-08T00:52:47.423Z,-3.10
2019-01-08T00:55:18.265Z,-3.10
2019-01-08T00:57:49.235Z,-3.10
2019-01-08T01:00:19.711Z,-3.20
2019-01-08T01:02:50.783Z,-3.20
2019-01-08T01:05:21.297Z,-3.20
2019-01-08T01:07:52.133Z,-3.20
2019-01-08T01:10:22.737Z,-3.20
2019-01-08T01:12:53.217Z,-3.30
2019-01-08T01:15:23.747Z,-3.20
2019-01-08T01:17:54.187Z,-3.30
2019-01-08T01:20:24.988Z,-3.30
2019-01-08T01:22:55.354Z,-3.30
2019-01-08T01:25:25.857Z,-3.30
2019-01-08T01:27:56.413Z,-3.40
2019-01-08T01:30:26.885Z,-3.40
2019-01-08T01:32:58.578Z,-3.40
2019-01-08T01:35:29.027Z,-3.40
2019-01-08T01:37:59.832Z,-3.40
2019-01-08T01:40:30.366Z,-3.40
2019-01-08T01:43:00.947Z,-3.40
2019-01-08T01:45:31.456Z,-3.30
2019-01-08T01:48:02.192Z,-3.40
2019-01-08T01:50:32.730Z,-3.30
2019-01-08T01:53:03.248Z,-3.40
2019-01-08T01:55:45.974Z,-3.50
2019-01-08T01:58:16.772Z,-3.40
2019-01-08T02:00:47.330Z,-3.30
2019-01-08T02:03:18.170Z,-3.40
2019-01-08T02:05:48.699Z,-3.40
2019-01-08T02:08:19.266Z,-3.50
2019-01-08T02:10:49.761Z,-3.50
2019-01-08T02:13:20.257Z,-3.40
2019-01-08T02:15:51.134Z,-3.50
2019-01-08T02:18:21.621Z,-3.50
2019-01-08T02:20:52.556Z,-3.50
2019-01-08T02:23:23.388Z,-3.40
2019-01-08T02:25:54.146Z,-3.40
2019-01-08T02:28:24.723Z,-3.40
2019-01-08T02:30:55.237Z,-3.40
2019-01-08T02:33:26.095Z,-3.30
2019-01-08T02:35:56.547Z,-3.30
2019-01-08T02:38:27.477Z,-3.40
2019-01-08T02:40:57.957Z,-3.40
2019-01-08T02:43:28.581Z,-3.40
2019-01-08T02:45:59.150Z,-3.40
2019-01-08T02:48:29.675Z,-3.40
2019-01-08T02:51:00.240Z,-3.40
2019-01-08T02:53:30.713Z,-3.30
2019-01-08T02:56:01.222Z,-3.30
2019-01-08T02:58:32.185Z,-3.30
2019-01-08T03:01:02.751Z,-3.40
2019-01-08T03:03:33.633Z,-3.50
2019-01-08T03:06:04.177Z,-3.40
2019-01-08T03:08:34.732Z,-3.40
2019-01-08T03:11:05.268Z,-3.40
2019-01-08T03:13:36.273Z,-3.40
2019-01-08T03:16:06.840Z,-3.40
2019-01-08T03:18:36.728Z,-3.30
2019-01-08T03:21:08.227Z,-3.40
2019-01-08T03:23:38.732Z,-3.30
2019-01-08T03:26:09.258Z,-3.30
2019-01-08T03:28:40.132Z,-3.40
2019-01-08T03:31:10.711Z,-3.40
2019-01-08T03:33:41.637Z,-3.40
2019-01-08T03:36:12.200Z,-3.40
2019-01-08T03:38:42.746Z,-3.40
2019-01-08T03:41:13.172Z,-3.40
2019-01-08T03:43:43.803Z,-3.30
2019-01-08T03:46:14.259Z,-3.20
2019-01-08T03:48:44.774Z,-3.10
2019-01-08T03:51:15.279Z,-3.10
2019-01-08T03:53:46.171Z,-3.00
2019-01-08T03:56:16.739Z,-3.00
2019-01-08T03:58:48.553Z,-3.00
2019-01-08T04:01:19.489Z,-2.90
2019-01-08T04:03:50.017Z,-3.00
2019-01-08T04:06:20.665Z,-2.90
2019-01-08T04:08:51.257Z,-2.90
2019-01-08T04:11:21.945Z,-2.80
2019-01-08T04:13:52.607Z,-2.80
2019-01-08T04:16:23.125Z,-2.80
2019-01-08T04:18:53.867Z,-2.80
2019-01-08T04:21:24.754Z,-2.70
2019-01-08T04:23:55.281Z,-2.70
2019-01-08T04:26:26.917Z,-2.70
2019-01-08T04:28:57.475Z,-2.70
2019-01-08T04:31:35.272Z,-2.60
2019-01-08T04:34:05.791Z,-2.70
2019-01-08T04:36:36.374Z,-2.80
2019-01-08T04:39:07.388Z,-2.80
2019-01-08T04:41:38.157Z,-2.90
2019-01-08T04:44:08.749Z,-2.90
2019-01-08T04:46:39.709Z,-2.80
2019-01-08T04:49:10.228Z,-2.80
2019-01-08T04:51:40.820Z,-2.80
2019-01-08T04:54:11.324Z,-2.70
2019-01-08T04:56:41.748Z,-2.70
2019-01-08T04:59:12.760Z,-2.60
2019-01-08T05:01:47.946Z,-2.60
2019-01-08T05:04:18.717Z,-2.60
2019-01-08T05:06:49.550Z,-2.70
2019-01-08T05:09:20.122Z,-2.60
2019-01-08T05:11:50.613Z,-2.60
2019-01-08T05:14:24.398Z,-2.60
2019-01-08T05:16:55.054Z,-2.60
2019-01-08T05:19:25.652Z,-2.60
2019-01-08T05:21:56.546Z,-2.50
2019-01-08T05:24:27.592Z,-2.60
2019-01-08T05:26:58.251Z,-2.60
2019-01-08T05:29:28.991Z,-2.60
2019-01-08T05:35:46.023Z,-2.50
2019-01-08T05:38:16.603Z,-2.50
2019-01-08T05:40:47.373Z,-2.50
2019-01-08T05:43:18.055Z,-2.40
2019-01-08T05:45:48.595Z,-2.40
2019-01-08T05:48:19.098Z,-2.40
2019-01-08T05:50:49.545Z,-2.40
2019-01-08T05:53:20.081Z,-2.40
2019-01-08T05:55:50.665Z,-2.40
2019-01-08T05:58:21.128Z,-2.40
2019-01-08T06:00:52.111Z,-2.40
2019-01-08T06:03:48.229Z,-2.30
2019-01-08T06:06:18.777Z,-2.30
2019-01-08T06:08:49.321Z,-2.30
2019-01-08T06:11:19.871Z,-2.30
2019-01-08T06:13:50.489Z,-2.30
2019-01-08T06:16:20.988Z,-2.30
2019-01-08T06:18:51.559Z,-2.30
2019-01-08T06:21:22.123Z,-2.30
2019-01-08T06:23:52.644Z,-2.30
2019-01-08T06:26:23.404Z,-2.20
2019-01-08T06:28:55.288Z,-2.20
2019-01-08T06:31:26.131Z,-2.10
2019-01-08T06:33:56.723Z,-2.10
2019-01-08T06:36:27.989Z,-2.00
2019-01-08T06:38:58.496Z,-1.90
2019-01-08T06:41:29.254Z,-1.90
2019-01-08T06:43:59.780Z,-1.80
2019-01-08T06:46:30.290Z,-1.70
2019-01-08T06:49:00.764Z,-1.70
2019-01-08T06:51:31.674Z,-1.70
2019-01-08T06:54:02.110Z,-1.70
2019-01-08T06:56:32.958Z,-1.70
2019-01-08T06:59:03.622Z,-1.60
2019-01-08T07:01:34.136Z,-1.60
2019-01-08T07:04:04.650Z,-1.50
2019-01-08T07:06:35.286Z,-1.50
2019-01-08T07:09:07.174Z,-1.50
2019-01-08T07:11:38.086Z,-1.60
2019-01-08T07:14:08.790Z,-1.50
2019-01-08T07:16:39.418Z,-1.50
2019-01-08T07:19:10.255Z,-1.40
2019-01-08T07:21:41.154Z,-1.50
2019-01-08T07:24:11.826Z,-1.40
2019-01-08T07:26:42.683Z,-1.40
2019-01-08T07:29:13.183Z,-1.40
2019-01-08T07:31:43.697Z,-1.40
2019-01-08T07:34:14.399Z,-1.40
2019-01-08T07:36:44.974Z,-1.50
2019-01-08T07:39:15.889Z,-1.40
2019-01-08T07:41:46.395Z,-1.40
2019-01-08T07:44:17.145Z,-1.40
2019-01-08T07:46:47.645Z,-1.50
2019-01-08T07:49:18.157Z,-1.50
2019-01-08T07:51:48.755Z,-1.40
2019-01-08T07:54:19.254Z,-1.50
2019-01-08T07:56:49.854Z,-1.50
2019-01-08T07:59:20.447Z,-1.50
2019-01-08T08:01:51.029Z,-1.50
2019-01-08T08:04:21.659Z,-1.50
2019-01-08T08:06:52.304Z,-1.60
2019-01-08T08:09:22.923Z,-1.60
2019-01-08T08:11:53.556Z,-1.60
2019-01-08T08:14:24.670Z,-1.60
2019-01-08T08:16:55.434Z,-1.60
2019-01-08T08:19:25.968Z,-1.50
2019-01-08T08:21:56.488Z,-1.40
2019-01-08T08:24:27.106Z,-1.40
2019-01-08T08:26:58.044Z,-1.40
2019-01-08T08:29:28.691Z,-1.40
2019-01-08T08:31:59.564Z,-1.40
2019-01-08T08:34:30.221Z,-1.40
2019-01-08T08:37:01.345Z,-1.40
2019-01-08T08:39:31.910Z,-1.50
2019-01-08T08:42:04.982Z,-1.40
2019-01-08T08:44:35.503Z,-1.40
2019-01-08T08:47:06.164Z,-1.50
2019-01-08T08:49:36.703Z,-1.40
2019-01-08T08:52:08.303Z,-1.40
2019-01-08T08:54:38.840Z,-1.30
2019-01-08T08:57:09.370Z,-1.30
2019-01-08T08:59:39.863Z,-1.30
2019-01-08T09:02:10.353Z,-1.10
2019-01-08T09:04:40.807Z,-1.10
2019-01-08T09:07:11.359Z,-1.00
2019-01-08T09:09:41.859Z,-1.00
2019-01-08T09:12:12.527Z,-1.00
2019-01-08T09:14:43.151Z,-0.90
2019-01-08T09:17:13.793Z,-0.90
2019-01-08T09:19:44.317Z,-0.90
2019-01-08T09:22:15.416Z,-0.90
2019-01-08T09:24:45.903Z,-0.80
2019-01-08T09:27:16.529Z,-0.80
2019-01-08T09:29:47.032Z,-0.70
2019-01-08T09:32:17.557Z,-0.80
2019-01-08T09:34:48.163Z,-0.70
2019-01-08T09:37:18.697Z,-0.70
2019-01-08T09:39:49.385Z,-0.60
2019-01-08T09:42:20.044Z,-0.60
2019-01-08T09:44:50.765Z,-0.50
2019-01-08T09:47:21.674Z,-0.60
2019-01-08T09:49:53.023Z,-0.50
2019-01-08T09:52:23.741Z,-0.50
2019-01-08T09:54:54.376Z,-0.60
2019-01-08T09:57:25.055Z,-0.60
2019-01-08T09:59:56.020Z,-0.60
2019-01-08T10:02:26.778Z,-0.50
2019-01-08T10:04:57.502Z,-0.50
2019-01-08T10:07:27.978Z,-0.40
2019-01-08T10:09:58.946Z,-0.50
2019-01-08T10:12:29.504Z,-0.40
2019-01-08T10:14:59.958Z,-0.40
2019-01-08T10:17:30.482Z,-0.40
2019-01-08T10:20:01.990Z,-0.30
2019-01-08T10:22:32.531Z,-0.30
2019-01-08T10:25:03.049Z,-0.30
2019-01-08T10:27:33.656Z,-0.40
2019-01-08T10:30:04.268Z,-0.40
2019-01-08T10:32:35.303Z,-0.40
2019-01-08T10:35:06.206Z,-0.50
2019-01-08T10:37:36.841Z,-0.50
2019-01-08T10:40:08.137Z,-0.40
2019-01-08T10:42:38.793Z,-0.40
2019-01-08T10:45:09.383Z,-0.30
2019-01-08T10:47:40.149Z,-0.20
2019-01-08T10:50:11.849Z,-0.20
2019-01-08T10:52:42.384Z,-0.20
2019-01-08T10:55:12.863Z,-0.30
2019-01-08T10:57:43.475Z,-0.20
2019-01-08T11:00:14.020Z,-0.20
2019-01-08T11:02:44.665Z,-0.20
2019-01-08T11:05:15.241Z,-0.20
2019-01-08T11:07:45.771Z,-0.10
2019-01-08T11:10:16.377Z,-0.10
2019-01-08T11:12:46.922Z,-0.20
2019-01-08T11:15:18.458Z,-0.10
2019-01-08T11:17:49.127Z,-0.10
2019-01-08T11:20:19.842Z,-0.10
2019-01-08T11:22:50.424Z,0.00
2019-01-08T11:25:21.260Z,-0.10
2019-01-08T11:27:51.828Z,0.00
2019-01-08T11:30:22.664Z,0.00
2019-01-08T11:32:54.810Z,0.00
2019-01-08T11:35:25.519Z,0.10
2019-01-08T11:37:55.951Z,0.00
2019-01-08T11:40:26.840Z,0.10
2019-01-08T11:42:57.334Z,0.10
2019-01-08T11:45:27.880Z,0.10
2019-01-08T11:48:03.902Z,0.10
2019-01-08T11:50:32.794Z,0.10
2019-01-08T11:53:03.321Z,0.20
2019-01-08T11:55:33.858Z,0.20
2019-01-08T11:58:04.327Z,0.20
2019-01-08T12:00:34.983Z,0.10
2019-01-08T12:03:05.660Z,0.10
2019-01-08T12:05:36.489Z,0.10
2019-01-08T12:08:06.930Z,0.10
2019-01-08T12:10:37.704Z,0.10
2019-01-08T12:13:08.175Z,0.20
2019-01-08T12:15:39.450Z,0.20
2019-01-08T12:18:10.348Z,0.20
2019-01-08T12:20:41.243Z,0.20
2019-01-08T12:23:11.715Z,0.10
2019-01-08T12:25:42.375Z,0.10
2019-01-08T12:28:12.839Z,0.10
2019-01-08T12:30:43.391Z,0.10
2019-01-08T12:33:13.931Z,0.10
2019-01-08T12:35:45.859Z,0.20
2019-01-08T12:38:20.055Z,0.20
2019-01-08T12:40:50.938Z,0.20
2019-01-08T12:43:21.470Z,0.10
2019-01-08T12:45:52.089Z,0.10
2019-01-08T12:48:23.695Z,0.20
2019-01-08T12:50:54.277Z,0.20
2019-01-08T12:53:24.825Z,0.20
2019-01-08T12:55:55.352Z,0.10
2019-01-08T12:58:26.063Z,0.20
2019-01-08T13:00:56.714Z,0.20
2019-01-08T13:03:27.655Z,0.20
2019-01-08T13:05:58.244Z,0.20
2019-01-08T13:08:29.032Z,0.20
2019-01-08T13:10:59.572Z,0.20
2019-01-08T13:13:30.196Z,0.20
2019-01-08T13:16:00.750Z,0.30
2019-01-08T13:18:31.333Z,0.30
2019-01-08T13:21:01.954Z,0.30
2019-01-08T13:23:32.843Z,0.40
2019-01-08T13:26:03.349Z,0.40
2019-01-08T13:28:34.168Z,0.30
2019-01-08T13:31:05.083Z,0.40
2019-01-08T13:33:35.797Z,0.40
2019-01-08T13:36:07.026Z,0.40
2019-01-08T13:38:37.534Z,0.50
2019-01-08T13:41:08.450Z,0.50
2019-01-08T13:43:39.155Z,0.50
2019-01-08T13:46:09.689Z,0.50
2019-01-08T13:48:40.594Z,0.50
2019-01-08T13:51:11.253Z,0.50
2019-01-08T13:53:42.131Z,0.40
2019-01-08T13:56:12.864Z,0.40
2019-01-08T13:58:43.415Z,0.40
2019-01-08T14:01:13.942Z,0.40
2019-01-08T14:03:44.644Z,0.40
2019-01-08T14:06:15.352Z,0.50
2019-01-08T14:08:45.881Z,0.40
2019-01-08T14:11:16.441Z,0.40
2019-01-08T14:13:47.507Z,0.40
2019-01-08T14:16:18.055Z,0.40
2019-01-08T14:18:49.814Z,0.40
2019-01-08T14:21:20.301Z,0.30
2019-01-08T14:23:50.994Z,0.30
2019-01-08T14:26:21.730Z,0.40
2019-01-08T14:28:52.368Z,0.50
2019-01-08T14:31:23.320Z,0.50
2019-01-08T14:33:53.874Z,0.40
2019-01-08T14:36:24.584Z,0.50
2019-01-08T14:38:55.140Z,0.60
2019-01-08T14:41:25.898Z,0.60
2019-01-08T14:44:05.308Z,0.60
2019-01-08T14:46:36.091Z,0.60
2019-01-08T14:49:06.646Z,0.70
2019-01-08T14:51:37.348Z,0.80
2019-01-08T14:54:16.840Z,0.80
2019-01-08T14:56:47.482Z,0.80
2019-01-08T14:59:17.986Z,0.80
2019-01-08T15:01:49.084Z,0.70
2019-01-08T15:04:19.570Z,0.80
2019-01-08T15:06:50.154Z,0.90
2019-01-08T15:09:20.755Z,0.80
2019-01-08T15:11:51.333Z,0.80
2019-01-08T15:14:21.997Z,0.80
2019-01-08T15:16:52.865Z,0.80
2019-01-08T15:19:23.321Z,0.80
2019-01-08T15:21:54.132Z,0.80
2019-01-08T15:24:24.679Z,0.70
2019-01-08T15:26:55.333Z,0.70
2019-01-08T15:29:25.848Z,0.80
2019-01-08T15:31:56.389Z,0.80
2019-01-08T15:34:27.035Z,0.70
2019-01-08T15:36:57.843Z,0.70
2019-01-08T15:39:28.539Z,0.80
2019-01-08T15:41:59.063Z,0.70
2019-01-08T15:45:32.988Z,0.70
2019-01-08T15:48:05.306Z,0.70
2019-01-08T15:50:35.723Z,0.80
2019-01-08T15:53:06.264Z,0.80
2019-01-08T15:55:36.960Z,0.80
2019-01-08T15:58:07.490Z,0.80
2019-01-08T16:00:38.013Z,0.80
2019-01-08T16:03:08.512Z,0.80
2019-01-08T16:05:39.129Z,0.80
2019-01-08T16:08:10.052Z,0.80
2019-01-08T16:10:40.646Z,0.90
2019-01-08T16:13:11.228Z,0.90
2019-01-08T16:15:41.818Z,0.90
2019-01-08T16:18:12.390Z,1.00
2019-01-08T16:20:42.868Z,0.90
2019-01-08T16:23:13.625Z,0.90
2019-01-08T16:25:51.620Z,0.90
2019-01-08T16:28:22.209Z,0.90
2019-01-08T16:30:52.783Z,0.90
2019-01-08T16:33:23.656Z,0.90
2019-01-08T16:35:54.222Z,0.90
2019-01-08T16:38:24.830Z,0.90
2019-01-08T16:40:55.590Z,0.90
2019-01-08T16:43:26.175Z,1.00
2019-01-08T16:45:58.341Z,1.00
2019-01-08T16:48:29.240Z,1.00
2019-01-08T16:50:59.767Z,0.90
2019-01-08T16:53:30.707Z,0.90
2019-01-08T16:56:01.151Z,0.90
2019-01-08T16:58:31.751Z,1.00
2019-01-08T17:01:02.173Z,0.90
2019-01-08T17:03:33.048Z,0.90
2019-01-08T17:06:03.491Z,1.00
2019-01-08T17:08:34.331Z,0.90
2019-01-08T17:11:04.921Z,0.90
2019-01-08T17:13:35.965Z,1.00
2019-01-08T17:16:06.729Z,0.90
2019-01-08T17:18:37.505Z,0.90
2019-01-08T17:21:08.112Z,0.90
2019-01-08T17:23:38.945Z,0.80
2019-01-08T17:26:09.563Z,0.80
2019-01-08T17:28:40.171Z,0.80
2019-01-08T17:31:10.809Z,0.80
2019-01-08T17:33:41.433Z,0.80
2019-01-08T17:36:12.132Z,0.80
2019-01-08T17:38:42.664Z,0.80
2019-01-08T17:41:13.553Z,0.80
2019-01-08T17:43:44.459Z,0.70
2019-01-08T17:46:15.346Z,0.70
2019-01-08T17:48:46.208Z,0.70
2019-01-08T17:51:16.816Z,0.60
2019-01-08T17:53:47.738Z,0.60
2019-01-08T17:56:18.432Z,0.60
2019-01-08T17:59:10.840Z,0.60
2019-01-08T18:02:04.412Z,0.60
2019-01-08T18:04:34.981Z,0.60
2019-01-08T18:07:06.590Z,0.60
2019-01-08T18:09:38.187Z,0.60
2019-01-08T18:12:08.704Z,0.60
2019-01-08T18:14:39.258Z,0.60
2019-01-08T18:17:10.256Z,0.50
2019-01-08T18:19:40.838Z,0.60
2019-01-08T18:22:11.649Z,0.50
2019-01-08T18:24:42.371Z,0.50
2019-01-08T18:27:13.521Z,0.40
2019-01-08T18:29:44.021Z,0.40
2019-01-08T18:32:14.629Z,0.40
2019-01-08T18:34:45.682Z,0.40
2019-01-08T18:37:16.349Z,0.40
2019-01-08T18:39:53.725Z,0.40
2019-01-08T18:42:24.554Z,0.40
2019-01-08T18:44:55.119Z,0.40
2019-01-08T18:47:25.717Z,0.30
2019-01-08T18:49:56.347Z,0.20
2019-01-08T18:52:26.861Z,0.30
2019-01-08T18:54:57.697Z,0.20
2019-01-08T18:57:29.753Z,0.30
2019-01-08T19:00:00.209Z,0.20
2019-01-08T19:02:31.455Z,0.30
2019-01-08T19:05:02.369Z,0.30
2019-01-08T19:07:33.100Z,0.20
2019-01-08T19:10:11.048Z,0.30
2019-01-08T19:12:41.969Z,0.30
2019-01-08T19:15:12.983Z,0.20
2019-01-08T19:17:44.186Z,0.30
2019-01-08T19:20:14.850Z,0.20
2019-01-08T19:22:45.930Z,0.20
2019-01-08T19:25:16.936Z,0.20
2019-01-08T19:27:48.398Z,0.20
2019-01-08T19:30:21.002Z,0.30
2019-01-08T19:32:52.296Z,0.20
2019-01-08T19:35:31.226Z,0.20
2019-01-08T19:37:55.487Z,0.30
2019-01-08T19:40:26.048Z,0.30
2019-01-08T19:42:56.739Z,0.30
2019-01-08T19:45:27.338Z,0.20
2019-01-08T19:47:57.974Z,0.30
2019-01-08T19:50:28.484Z,0.30
2019-01-08T19:52:59.157Z,0.30
2019-01-08T19:55:29.755Z,0.30
2019-01-08T19:58:00.341Z,0.20
2019-01-08T20:00:30.850Z,0.20
2019-01-08T20:03:01.813Z,0.20
2019-01-08T20:05:32.397Z,0.20
2019-01-08T20:08:02.976Z,0.20
2019-01-08T20:10:34.074Z,0.10
2019-01-08T20:13:04.599Z,0.10
2019-01-08T20:15:35.549Z,0.10
2019-01-08T20:18:06.517Z,0.10
2019-01-08T20:20:37.075Z,0.00
2019-01-08T20:23:07.751Z,0.00
2019-01-08T20:25:38.282Z,0.00
2019-01-08T20:28:08.969Z,0.10
2019-01-08T20:30:39.568Z,0.00
2019-01-08T20:33:10.195Z,0.10
2019-01-08T20:35:41.125Z,0.10
2019-01-08T20:38:12.107Z,0.10
2019-01-08T20:40:42.638Z,0.00
2019-01-08T20:43:13.547Z,0.00
2019-01-08T20:45:44.212Z,0.00
2019-01-08T20:48:16.475Z,0.00
2019-01-08T20:50:47.383Z,0.00
2019-01-08T20:53:18.009Z,0.00
2019-01-08T20:55:50.185Z,0.00
2019-01-08T20:58:27.560Z,0.00
2019-01-08T21:00:52.907Z,-0.10
2019-01-08T21:03:23.632Z,0.00
2019-01-08T21:05:54.417Z,-0.10
2019-01-08T21:08:25.499Z,-0.10
2019-01-08T21:10:56.276Z,-0.10
2019-01-08T21:13:27.280Z,-0.10
2019-01-08T21:15:58.015Z,-0.10
2019-01-08T21:18:28.992Z,-0.10
2019-01-08T21:21:00.204Z,-0.10
2019-01-08T21:23:30.930Z,-0.10
2019-01-08T21:26:01.460Z,-0.20
2019-01-08T21:28:32.107Z,-0.20
2019-01-08T21:31:02.646Z,-0.20
2019-01-08T21:33:33.409Z,-0.20
2019-01-08T21:36:03.910Z,-0.20
2019-01-08T21:38:34.586Z,-0.20
2019-01-08T21:41:06.269Z,-0.20
2019-01-08T21:43:37.081Z,-0.30
2019-01-08T21:46:07.676Z,-0.30
2019-01-08T21:48:38.625Z,-0.20
2019-01-08T21:51:09.310Z,-0.30
2019-01-08T21:53:39.820Z,-0.30
2019-01-08T21:56:12.791Z,-0.30
2019-01-08T21:58:43.601Z,-0.30
2019-01-08T22:01:14.417Z,-0.30
2019-01-08T22:03:45.428Z,-0.30
2019-01-08T22:06:16.164Z,-0.30
2019-01-08T22:08:46.735Z,-0.30
2019-01-08T22:11:17.946Z,-0.30
2019-01-08T22:13:48.420Z,-0.30
2019-01-08T22:16:19.343Z,-0.30
2019-01-08T22:18:49.951Z,-0.30
2019-01-08T22:21:20.459Z,-0.30
2019-01-08T22:23:51.055Z,-0.30
2019-01-08T22:26:21.583Z,-0.30
2019-01-08T22:28:52.684Z,-0.30
2019-01-08T22:31:23.217Z,-0.40
2019-01-08T22:33:53.773Z,-0.40
2019-01-08T22:36:24.499Z,-0.40
2019-01-08T22:38:55.131Z,-0.30
2019-01-08T22:41:25.632Z,-0.30
2019-01-08T22:43:57.466Z,-0.30
2019-01-08T22:46:28.006Z,-0.30
2019-01-08T22:48:58.685Z,-0.40
2019-01-08T22:51:29.338Z,-0.50
2019-01-08T22:53:59.918Z,-0.40
2019-01-08T22:56:30.484Z,-0.40
2019-01-08T22:59:01.258Z,-0.40
2019-01-08T23:01:36.810Z,-0.40
2019-01-08T23:04:09.228Z,-0.40
2019-01-08T23:06:40.158Z,-0.50
2019-01-08T23:09:11.634Z,-0.60
2019-01-08T23:11:42.431Z,-0.70
2019-01-08T23:14:13.194Z,-0.60
2019-01-08T23:16:44.127Z,-0.60
2019-01-08T23:19:14.664Z,-0.60
2019-01-08T23:21:45.296Z,-0.70
2019-01-08T23:24:15.822Z,-0.60
2019-01-08T23:26:46.625Z,-0.70
2019-01-08T23:29:17.088Z,-0.50
2019-01-08T23:31:47.707Z,-0.60
2019-01-08T23:34:19.799Z,-0.50
2019-01-08T23:36:50.373Z,-0.50
2019-01-08T23:39:22.792Z,-0.60
2019-01-08T23:41:54.095Z,-0.50
2019-01-08T23:44:24.926Z,-0.50
2019-01-08T23:46:55.459Z,-0.60
2019-01-08T23:49:25.961Z,-0.70
2019-01-08T23:52:08.729Z,-0.70
2019-01-08T23:54:41.341Z,-0.70
2019-01-08T23:57:12.350Z,-0.70
2019-01-08T23:59:52.215Z,-0.80
